Weather observations for the past three days for
COLEMAN
Metric (Imperial)
Date Time (cdt) Wind (kph) Vis. (km) Weather Sky Cond. Temperature (ºC) Relative Humidity Wind Chill (°C) Heat Index (°C) Pressure Precipitation (cm)
Air Dwpt 6 hour altimeter (cm) sea level (mb) 1 hr 3 hr 6 hr
Max. Min.
01 15:35 Calm 16.09 Partly Cloudy SCT090 36.6 12 23% 35 76.17 0.0
01 15:15 S 11 16.09 Partly Cloudy SCT090 37.6 11.9 21% 36 76.2 0.0
01 14:55 SW 11 G 28 16.09 Mostly Cloudy BKN090 36.9 12.2 23% 36 76.23 0.0
01 14:35 E 7 16.09 Partly Cloudy SCT080 37.2 12 22% 36 76.23 0.0
01 14:15 SE 9 16.09 Fair CLR 36.2 12.7 24% 35 76.25 0.0
01 13:55 SE 13 16.09 Fair CLR 35.8 12.5 24% 35 76.28 0.0
01 13:35 Calm 16.09 Fair CLR 35.2 12.8 26% 34 76.3 0.0
01 13:15 SE 9 16.09 Fair CLR 35 13.2 27% 34 76.33 0.0
01 12:55 Calm 16.09 Fair CLR 35.1 14.6 35.1 22.1 29% 35 76.35 0.0
01 12:35 S 7 G 26 16.09 Fair CLR 34.4 14.5 30% 34 76.38 0.0
01 12:15 S 13 G 26 16.09 Partly Cloudy SCT003 34 14.8 31% 34 76.4 0.0
01 11:55 S 9 16.09 Partly Cloudy SCT002 33.3 15.4 34% 33 76.4 0.0
01 11:35 SE 13 16.09 Fair CLR 33 15.8 36% 33 76.4 0.0
01 11:15 S 13 16.09 Fair CLR 32 15.9 38% 32 76.43 0.0
01 10:50 Calm 16.09 Fair CLR 31.4 15.6 38% 31 76.43 0.0
01 10:35 S 13 16.09 Fair CLR 31.4 15.4 38% 31 76.43 0.0
01 10:15 S 11 16.09 Fair CLR 30.7 16.1 41% 31 76.43 0.0
01 09:55 SW 9 16.09 Fair CLR 29.3 16.9 47% 30 76.43 0.0
01 09:35 SW 11 16.09 Fair CLR 28.4 17.6 52% 29 76.43 0.0
01 09:15 SW 15 16.09 Fair CLR 27.6 18.1 56% 29 76.43 0.0
01 08:55 S 7 16.09 Fair CLR 26.7 18.3 60% 28 76.43 0.0
01 08:35 S 7 16.09 Fair CLR 25.5 18.1 64% 27 76.43 0.0
01 08:15 Calm 16.09 Fair CLR 24.2 17.8 68% 25 76.43 0.0
01 07:55 Calm 16.09 Fair CLR 23.3 17.7 71% 76.4 0.0
01 07:35 SW 6 16.09 Fair CLR 22.5 17.4 73% 76.4 0.0
01 07:15 Calm 16.09 Fair CLR 22.1 17 73% 76.38 0.0
01 06:55 Calm 16.09 Fair CLR 22.2 16.8 27.8 22.2 72% 76.38 0.0
01 06:35 Calm 16.09 Fair CLR 22.5 16.7 70% 76.35 0.0
01 06:15 Calm 16.09 Fair CLR 22.2 16.4 70% 76.35 0.0
01 05:55 Calm 16.09 Fair CLR 22.5 16.2 68% 76.35 0.0
01 05:35 Calm 16.09 Fair CLR 22.4 16.1 68% 76.35 0.0
01 05:15 E 6 16.09 Fair CLR 22.3 16.1 68% 76.35 0.0
01 04:55 E 6 16.09 Fair CLR 22.9 16 65% 76.35 0.0
01 04:35 SE 6 16.09 Fair CLR 24 16 61% 25 76.33 0.0
01 04:15 Calm 16.09 Fair CLR 24.1 16 61% 25 76.33 0.0
01 03:55 S 7 16.09 Fair CLR 24.9 16 58% 26 76.33 0.0
01 03:35 S 7 16.09 Fair CLR 25.4 16 56% 26 76.33 0.0
01 03:15 S 7 16.09 Fair CLR 26.2 16 53% 27 76.33 0.0
01 02:55 S 9 16.09 Fair CLR 26.8 15.8 51% 27 76.3 0.0
01 02:35 S 6 16.09 Fair CLR 26.6 15.6 51% 27 76.3 0.0
01 02:15 S 7 16.09 Fair CLR 25.9 15.5 53% 27 76.3 0.0
01 01:55 S 6 16.09 Fair CLR 26 15.2 51% 27 76.3 0.0
01 01:35 S 7 16.09 Fair CLR 26.7 15.1 49% 27 76.3 0.0
01 01:15 S 7 16.09 Fair CLR 27.6 15 46% 28 76.28 0.0
01 00:55 SE 11 16.09 Fair CLR 27.9 14.8 35.1 27.9 45% 28 76.28 0.0
01 00:35 SE 11 16.09 Fair CLR 28.5 14.6 43% 28 76.28 0.0
01 00:15 SE 9 16.09 Fair CLR 29.1 14.5 41% 29 76.28 0.0
31 23:55 SE 15 16.09 Fair CLR 29.3 14.5 40% 29 76.28 0.0
31 23:35 SE 13 16.09 Fair CLR 29.5 14.3 39% 29 76.28 0.0
31 23:15 SE 19 16.09 Fair CLR 29.6 14.3 39% 29 76.25 0.0
31 22:55 SE 17 16.09 Fair CLR 30 14 38% 29 76.25 0.0
31 22:35 SE 17 G 26 16.09 Fair CLR 30.2 14 37% 30 76.23 0.0
31 22:15 SE 15 16.09 Fair CLR 30.4 13.7 36% 30 76.23 0.0
31 21:55 SE 15 16.09 Fair CLR 30.5 13.5 35% 30 76.2 0.0
31 21:35 SE 13 16.09 Fair CLR 30.1 13 35% 29 76.17 0.0
31 21:15 SE 11 16.09 Fair CLR 30 12.5 34% 29 76.17 0.0
31 20:55 SE 11 16.09 Fair CLR 30.1 12.3 33% 29 76.15 0.0
31 20:35 SE 9 16.09 Fair CLR 31.1 12.3 32% 30 76.12 0.0
31 20:15 SE 13 16.09 Fair CLR 32.2 12.2 29% 31 76.12 0.0
31 19:55 SE 15 16.09 Fair CLR 33.2 12.2 28% 32 76.12 0.0
31 19:35 SE 20 G 26 16.09 Fair CLR 34 12.5 27% 33 76.1 0.0
31 19:15 SE 17 G 31 16.09 Fair CLR 34.6 12.9 27% 34 76.1 0.0
31 18:35 E 17 16.09 Fair CLR 35.7 12.9 25% 35 76.1 0.0
31 18:15 SE 17 G 30 16.09 Partly Cloudy SCT090 36 12.3 24% 35 76.1 0.0
31 17:55 SE 15 16.09 Partly Cloudy SCT090 36.8 11.9 22% 36 76.1 0.0
31 17:35 SE 20 G 28 16.09 Partly Cloudy SCT090 36.9 12.2 23% 36 76.1 0.0
31 17:15 SE 17 G 28 16.09 Partly Cloudy SCT090 37.1 12.2 22% 36 76.1 0.0
31 16:55 SE 17 G 26 16.09 Fair CLR 36.7 12 22% 35 76.12 0.0
31 16:35 SE 20 G 28 16.09 Partly Cloudy SCT090 35.2 12.5 25% 34 76.15 0.0
31 16:15 SE 7 G 20 16.09 Partly Cloudy SCT090 37.2 12.1 22% 36 76.15 0.0
31 15:55 SE 26 G 31 16.09 Partly Cloudy SCT090 37 12.3 23% 36 76.17 0.0
31 15:35 SE 15 G 28 16.09 Partly Cloudy SCT090 37 12.4 23% 36 76.17 0.0
31 15:15 SE 20 16.09 Partly Cloudy SCT080 35.9 12.4 24% 35 76.2 0.0
31 14:55 SE 17 G 28 16.09 Partly Cloudy SCT080 37 13.2 24% 36 76.23 0.0
31 14:35 S 11 16.09 Fair CLR 36.5 14 26% 36 76.23 0.0
31 14:15 SE 7 16.09 Fair CLR 36 13.6 26% 35 76.28 0.0
31 13:55 S 17 G 26 16.09 Partly Cloudy SCT065 SCT080 36.3 13.8 26% 36 76.28 0.0
31 13:35 Calm 16.09 Fair CLR 35.1 15.3 31% 35 76.3 0.0
31 13:15 SE 17 16.09 Fair CLR 34.6 16.1 33% 35 76.33 0.0
31 12:55 S 9 16.09 Fair CLR 34 16.6 34.1 21.8 35% 34 76.35 0.0
31 12:35 S 13 G 26 16.09 Fair CLR 33.5 17.2 38% 34 76.38 0.0
31 12:15 S 17 16.09 Fair CLR 32.7 17.1 39% 33 76.4 0.0
31 11:55 SE 17 16.09 Fair CLR 32.2 17.7 42% 33 76.4 0.0
31 11:35 S 13 16.09 Fair CLR 31.3 18 45% 32 76.4 0.0
31 11:15 Calm 16.09 Fair CLR 30.5 18.2 48% 31 76.4 0.0
31 10:55 SW 9 16.09 Fair CLR 30.1 18.3 49% 31 76.4 0.0
31 10:35 S 9 16.09 Fair CLR 29.5 18.6 52% 31 76.4 0.0
31 10:15 SW 7 16.09 Fair CLR 29 18.6 53% 30 76.38 0.0
31 09:55 SW 7 16.09 Fair CLR 28.1 18.6 56% 29 76.38 0.0
31 09:30 S 7 16.09 Fair CLR 27.4 18.7 59% 29 76.38 0.0
31 09:15 SW 7 16.09 Fair CLR 27 18.8 61% 28 76.4 0.0
31 08:55 SW 9 16.09 Fair CLR 26.6 18.8 62% 28 76.38 0.0
31 08:35 Calm 16.09 Fair CLR 25 18.6 68% 26 76.35 0.0
31 08:15 Calm 16.09 Fair CLR 24.1 18.5 71% 25 76.35 0.0
31 07:55 Calm 16.09 Fair CLR 23.2 18.5 75% 76.33 0.0
31 07:35 Calm 16.09 Fair CLR 21.8 18 79% 76.3 0.0
31 07:15 Calm 16.09 Fair CLR 22.6 18.2 76% 76.28 0.0
31 06:55 SW 6 16.09 Fair CLR 22.8 18.2 27.7 22.8 75% 76.28 0.0
31 06:35 SW 7 16.09 Fair CLR 23 18.2 74% 76.25 0.0
31 06:15 S 7 16.09 Fair CLR 23.5 18.2 72% 76.23 0.0
31 05:55 S 7 16.09 Fair CLR 23.9 18.2 71% 25 76.25 0.0
31 05:35 S 9 16.09 Fair CLR 24.2 18.1 69% 25 76.23 0.0
31 05:15 S 11 16.09 Fair CLR 24.5 18.1 68% 25 76.25 0.0
31 04:50 S 13 16.09 Fair CLR 25 18.1 66% 26 76.23 0.0
31 04:35 S 11 16.09 Fair CLR 25 18 65% 26 76.23 0.0
31 04:15 S 9 16.09 Fair CLR 24.7 17.8 66% 26 76.23 0.0
31 03:55 S 11 16.09 Fair CLR 25.3 17.8 63% 26 76.23 0.0
31 03:35 S 15 16.09 Fair CLR 25.8 17.6 61% 27 76.23 0.0
31 03:15 S 15 16.09 Fair CLR 26.1 17.5 59% 27 76.23 0.0
31 02:55 S 15 16.09 Fair CLR 26.5 17.1 56% 27 76.23 0.0
31 02:35 S 15 16.09 Fair CLR 26.5 16.7 55% 27 76.23 0.0
31 02:10 S 15 16.09 Fair CLR 27 16.3 52% 28 76.23 0.0
31 01:55 S 15 16.09 Fair CLR 27.5 16.1 50% 28 76.23 0.0
31 01:35 S 7 16.09 Fair CLR 26.5 16.2 53% 27 76.23 0.0
31 01:15 S 7 16.09 Fair CLR 27.5 16.1 50% 28 76.23 0.0
31 00:55 S 9 16.09 Fair CLR 27.7 16.1 35.4 27.7 49% 28 76.2 0.0
31 00:35 S 11 16.09 Fair CLR 28.2 16 48% 28 76.2 0.0
31 00:15 S 11 16.09 Fair CLR 28.6 16 46% 29 76.23 0.0
30 23:55 S 13 16.09 Fair CLR 29 15.8 45% 29 76.23 0.0
30 23:35 S 13 16.09 Fair CLR 29.3 15.8 44% 29 76.2 0.0
30 23:15 SE 13 16.09 Fair CLR 29.7 15.7 43% 30 76.2 0.0
30 22:55 SE 17 16.09 Fair CLR 29.9 15.5 42% 30 76.2 0.0
30 22:35 SE 17 16.09 Fair CLR 30.2 14.9 39% 30 76.2 0.0
30 22:15 SE 17 G 28 16.09 Fair CLR 30.8 14.1 36% 30 76.17 0.0
30 21:55 SE 17 16.09 Fair CLR 30.5 13.1 34% 30 76.15 0.0
30 21:35 SE 13 16.09 Fair CLR 30.7 13 34% 30 76.12 0.0
30 21:15 SE 15 16.09 Fair CLR 31.2 13.1 33% 30 76.1 0.0
30 20:55 SE 15 16.09 Fair CLR 31.6 13.5 33% 31 76.07 0.0
30 20:35 SE 13 16.09 Fair CLR 32.2 13.7 32% 31 76.07 0.0
30 20:15 SE 19 16.09 Fair CLR 33 13.7 31% 32 76.05 0.0
30 19:55 SE 19 16.09 Fair CLR 33.6 13.7 30% 33 76.05 0.0
30 19:35 SE 19 16.09 Fair CLR 34.4 13.6 28% 34 76.05 0.0
30 19:15 SE 22 G 30 16.09 Fair CLR 35 13.5 27% 34 76.02 0.0
30 18:55 SE 19 G 26 16.09 Partly Cloudy SCT090 35.2 13.3 37.5 34.3 27% 34 76.02 0.0
30 18:35 S 13 16.09 Partly Cloudy SCT090 36.4 13 24% 35 76.02 0.0
30 18:15 S 11 16.09 Partly Cloudy SCT090 36.9 11.8 22% 36 76.05 0.0
30 17:55 S 20 G 30 16.09 Partly Cloudy SCT090 37 12.5 23% 36 76.05 0.0
30 17:35 S 9 16.09 Fair CLR 37 12.8 23% 36 76.05 0.0
30 17:15 S 15 G 26 16.09 Partly Cloudy SCT085 37.5 12.7 22% 37 76.05 0.0
30 16:55 S 11 16.09 Partly Cloudy SCT085 36.7 12.7 24% 36 76.05 0.0
30 16:35 SE 20 G 28 16.09 Fair CLR 36.7 13.5 25% 36 76.07 0.0
30 16:15 S 13 G 28 16.09 Fair CLR 37 13.8 25% 36 76.1 0.0
30 15:55 S 20 G 26 16.09 Partly Cloudy SCT080 37.1 14.1 25% 37 76.1 0.0
30 15:35 Calm 16.09 Fair CLR 36.8 14.1 26% 36 76.15 0.0
30 15:15 S 19 16.09 Fair CLR 37.2 14.1 25% 37 76.17 0.0
30 14:55 S 15 G 26 16.09 Partly Cloudy SCT070 36.7 13.7 25% 36 76.2 0.0
30 14:35 S 15 16.09 Partly Cloudy SCT070 35.9 14.9 28% 36 76.2 0.0
30 14:15 SW 7 16.09 Fair CLR 35.5 14.8 29% 35 76.23 0.0
30 13:55 S 17 G 26 16.09 Partly Cloudy SCT065 35.9 15.6 30% 36 76.23 0.0
30 13:35 S 9 16.09 Partly Cloudy SCT065 35.1 15.6 31% 35 76.28 0.0
30 13:15 S 13 16.09 Partly Cloudy SCT055 35.4 16.5 32% 36 76.3 0.0
30 12:55 S 15 16.09 Partly Cloudy SCT055 34.5 16.1 34.6 22.1 33% 35 76.33 0.0
30 12:35 S 6 G 26 16.09 Fair CLR 33.6 17.1 37% 34 76.35 0.0
30 12:15 S 17 G 26 16.09 Fair CLR 33.5 17.6 39% 34 76.38 0.0
30 11:55 S 13 16.09 Fair CLR 32.9 17.6 40% 34 76.38 0.0
30 11:35 S 20 G 28 16.09 Fair CLR 32.2 18.2 43% 33 76.4 0.0
30 11:15 S 13 16.09 Fair CLR 31.5 18.1 45% 32 76.4 0.0
30 10:55 SW 9 16.09 Fair CLR 31 18.6 48% 32 76.4 0.0
30 10:35 S 13 16.09 Fair CLR 30.3 19 51% 32 76.4 0.0
30 10:15 SW 11 16.09 Fair CLR 29.4 19.2 54% 31 76.4 0.0
30 09:55 SW 11 16.09 Fair CLR 28.8 19.4 57% 30 76.4 0.0
30 09:35 SW 9 16.09 Fair CLR 27.6 19.2 60% 29 76.4 0.0
30 09:10 S 13 16.09 Fair CLR 27 19.1 62% 28 76.4 0.0
30 08:55 SW 7 16.09 Fair CLR 26.2 19 65% 27 76.4 0.0
30 08:35 S 6 16.09 Fair CLR 25.2 19 69% 26 76.4 0.0
30 08:15 S 6 16.09 Fair CLR 24.1 18.8 72% 25 76.38 0.0
30 07:55 S 7 16.09 Fair CLR 23.2 18.5 75% 76.35 0.0
30 07:35 Calm 16.09 Fair CLR 22.5 18.5 78% 76.35 0.0
30 07:10 S 6 16.09 Fair CLR 22.1 18.1 78% 76.33 0.0
30 06:55 S 7 16.09 Fair CLR 22.3 18 27 22.1 77% 76.3 0.0
30 06:35 S 7 16.09 Fair CLR 22.5 18 76% 76.3 0.0
30 06:15 S 7 16.09 Fair CLR 22.4 18 76% 76.28 0.0
30 05:55 S 6 16.09 Fair CLR 22.2 17.6 75% 76.28 0.0
30 05:35 S 7 16.09 Fair CLR 22.2 17.5 75% 76.28 0.0
30 05:15 S 6 16.09 Fair CLR 23.1 17.5 71% 76.28 0.0
30 04:35 S 7 16.09 Fair CLR 24.3 17.5 66% 25 76.28 0.0
30 04:15 S 7 16.09 Fair CLR 24.3 17.3 65% 25 76.28 0.0
30 03:55 S 9 16.09 Fair CLR 24.5 17.3 64% 26 76.28 0.0
30 03:35 S 7 16.09 Fair CLR 24.6 17.2 64% 26 76.28 0.0
30 03:15 S 9 16.09 Fair CLR 25 17.1 62% 26 76.28 0.0
30 02:55 S 7 16.09 Fair CLR 24.6 17.1 63% 26 76.28 0.0
30 02:35 S 7 16.09 Partly Cloudy SCT002 24.5 17.2 64% 26 76.28 0.0
30 02:10 S 6 16.09 Partly Cloudy SCT002 25.2 17.2 61% 26 76.28 0.0
30 01:55 S 7 16.09 Fair CLR 25.6 17 59% 27 76.28 0.0
30 01:35 S 7 16.09 Fair CLR 26.2 17 57% 27 76.28 0.0
30 01:15 S 7 16.09 Fair CLR 26.5 17 56% 27 76.28 0.0
30 00:55 S 7 16.09 Fair CLR 27.1 16.8 35.4 27.1 53% 28 76.28 0.0
30 00:35 S 9 16.09 Fair CLR 27.7 16.7 51% 28 76.28 0.0
30 00:15 S 11 16.09 Fair CLR 28.2 16.6 49% 29 76.28 0.0
29 23:55 S 11 16.09 Fair CLR 28.7 16.5 48% 29 76.28 0.0
29 23:35 S 17 16.09 Fair CLR 29.2 16.2 45% 29 76.28 0.0
29 23:15 S 15 16.09 Partly Cloudy SCT002 29.8 16.2 44% 30 76.28 0.0
29 22:55 S 17 16.09 Partly Cloudy SCT002 30.1 16.1 43% 30 76.28 0.0
29 22:35 SE 17 16.09 Fair CLR 30.5 16 42% 30 76.28 0.0
29 22:15 SE 17 16.09 Fair CLR 30.6 15.8 41% 31 76.25 0.0
29 21:55 SE 15 16.09 Fair CLR 31 15.5 39% 31 76.23 0.0
29 21:35 SE 15 16.09 Fair CLR 31 15.3 39% 31 76.23 0.0
29 21:15 SE 11 16.09 Fair CLR 31 14.8 37% 31 76.2 0.0
29 20:55 SE 13 16.09 Fair CLR 31.6 14.5 35% 31 76.17 0.0
29 20:35 SE 15 16.09 Fair CLR 31.9 14.5 35% 31 76.17 0.0
29 20:15 SE 17 16.09 Fair CLR 32.7 14.3 33% 32 76.15 0.0
29 19:55 SE 17 16.09 Fair CLR 33.5 14.1 31% 33 76.15 0.0
29 19:35 SE 17 16.09 Fair CLR 34.5 13.8 29% 34 76.15 0.0
29 19:15 SE 20 G 31 16.09 Fair CLR 35 13.9 28% 34 76.15 0.0
29 18:55 SE 17 16.09 Partly Cloudy SCT090 35.6 13.5 37.5 34.8 26% 35 76.12 0.0
29 18:35 SE 20 G 28 16.09 Fair CLR 36.3 13.6 26% 36 76.12 0.0
29 18:15 SE 17 G 26 16.09 Fair CLR 36.5 13.6 25% 36 76.12 0.0
29 17:55 SE 13 16.09 Fair CLR 36.9 13.6 25% 36 76.12 0.0
29 17:35 SE 9 16.09 Partly Cloudy SCT085 36.7 13.1 24% 36 76.12 0.0
29 17:15 S 19 G 28 16.09 Partly Cloudy SCT085 36.8 13.6 25% 36 76.15 0.0
29 16:55 S 13 16.09 Partly Cloudy SCT080 36.5 14.1 26% 36 76.15 0.0
29 16:35 SE 19 G 26 16.09 Partly Cloudy SCT080 37.1 14.4 26% 37 76.17 0.0
29 16:15 SE 13 16.09 Fair CLR 37.3 14.5 26% 37 76.2 0.0
29 15:55 S 13 16.09 Fair CLR 35.6 14.6 28% 35 76.23 0.0
Date Time (cdt) Wind (kph) Vis. (km) Weather Sky Cond. Air Dwpt Max. Min. Relative Humidity Wind Chill (°C) Heat Index (°C) altimeter (cm) sea level (mb) 1 hr 3 hr 6 hr
6 hour
Temperature (ºC) Pressure Precipitation (cm)